sensor_id;sensor_type;location;lat;lon;timestamp;P1;durP1;ratioP1;P2;durP2;ratioP2
79779;SDS011;69258;52.050;10.334;2023-08-21T00:00:07;10.30;;;4.50;;
79779;SDS011;69258;52.050;10.334;2023-08-21T00:15:10;4.33;;;3.93;;
79779;SDS011;69258;52.050;10.334;2023-08-21T00:30:13;4.57;;;4.10;;
79779;SDS011;69258;52.050;10.334;2023-08-21T00:45:15;4.40;;;4.00;;
79779;SDS011;69258;52.050;10.334;2023-08-21T01:00:17;5.20;;;4.43;;
79779;SDS011;69258;52.050;10.334;2023-08-21T01:15:21;4.77;;;3.90;;
79779;SDS011;69258;52.050;10.334;2023-08-21T01:30:25;4.27;;;3.87;;
79779;SDS011;69258;52.050;10.334;2023-08-21T01:45:31;4.63;;;4.23;;
79779;SDS011;69258;52.050;10.334;2023-08-21T02:00:33;4.50;;;3.73;;
79779;SDS011;69258;52.050;10.334;2023-08-21T02:15:35;4.93;;;4.10;;
79779;SDS011;69258;52.050;10.334;2023-08-21T02:30:41;4.70;;;4.20;;
79779;SDS011;69258;52.050;10.334;2023-08-21T02:45:44;4.50;;;4.10;;
79779;SDS011;69258;52.050;10.334;2023-08-21T03:00:46;4.63;;;3.83;;
79779;SDS011;69258;52.050;10.334;2023-08-21T03:15:48;4.77;;;3.63;;
79779;SDS011;69258;52.050;10.334;2023-08-21T03:30:52;6.87;;;3.53;;
79779;SDS011;69258;52.050;10.334;2023-08-21T03:45:54;4.03;;;3.63;;
79779;SDS011;69258;52.050;10.334;2023-08-21T04:00:56;4.27;;;3.87;;
79779;SDS011;69258;52.050;10.334;2023-08-21T04:15:59;3.67;;;3.37;;
79779;SDS011;69258;52.050;10.334;2023-08-21T04:31:03;5.57;;;3.63;;
79779;SDS011;69258;52.050;10.334;2023-08-21T04:46:06;4.57;;;3.60;;
79779;SDS011;69258;52.050;10.334;2023-08-21T05:01:10;5.13;;;3.70;;
79779;SDS011;69258;52.050;10.334;2023-08-21T05:16:12;10.30;;;3.47;;
79779;SDS011;69258;52.050;10.334;2023-08-21T05:31:14;6.83;;;3.27;;
79779;SDS011;69258;52.050;10.334;2023-08-21T05:46:17;7.27;;;3.80;;
79779;SDS011;69258;52.050;10.334;2023-08-21T06:01:18;9.30;;;4.20;;
79779;SDS011;69258;52.050;10.334;2023-08-21T06:16:21;8.70;;;4.50;;
79779;SDS011;69258;52.050;10.334;2023-08-21T06:31:24;7.37;;;4.07;;
79779;SDS011;69258;52.050;10.334;2023-08-21T06:46:27;4.43;;;3.40;;
79779;SDS011;69258;52.050;10.334;2023-08-21T07:01:30;5.60;;;3.40;;
79779;SDS011;69258;52.050;10.334;2023-08-21T07:16:32;5.13;;;3.30;;
79779;SDS011;69258;52.050;10.334;2023-08-21T07:31:35;3.83;;;3.13;;
79779;SDS011;69258;52.050;10.334;2023-08-21T07:46:38;6.07;;;3.33;;
79779;SDS011;69258;52.050;10.334;2023-08-21T08:01:41;5.87;;;3.50;;
79779;SDS011;69258;52.050;10.334;2023-08-21T08:16:43;5.90;;;3.60;;
79779;SDS011;69258;52.050;10.334;2023-08-21T08:31:46;4.33;;;3.63;;
79779;SDS011;69258;52.050;10.334;2023-08-21T08:46:48;5.37;;;3.40;;
79779;SDS011;69258;52.050;10.334;2023-08-21T09:01:52;5.93;;;3.60;;
79779;SDS011;69258;52.050;10.334;2023-08-21T09:16:59;4.10;;;3.20;;
79779;SDS011;69258;52.050;10.334;2023-08-21T09:32:03;4.47;;;3.10;;
79779;SDS011;69258;52.050;10.334;2023-08-21T09:47:09;4.23;;;3.00;;
79779;SDS011;69258;52.050;10.334;2023-08-21T10:02:12;3.63;;;2.70;;
79779;SDS011;69258;52.050;10.334;2023-08-21T10:17:15;5.40;;;3.07;;
79779;SDS011;69258;52.050;10.334;2023-08-21T10:32:18;5.10;;;2.50;;
79779;SDS011;69258;52.050;10.334;2023-08-21T11:02:30;6.87;;;3.20;;
79779;SDS011;69258;52.050;10.334;2023-08-21T11:17:34;31.77;;;13.47;;
79779;SDS011;69258;52.050;10.334;2023-08-21T11:32:36;43.40;;;23.23;;
79779;SDS011;69258;52.050;10.334;2023-08-21T11:47:41;32.03;;;14.67;;
79779;SDS011;69258;52.050;10.334;2023-08-21T12:03:00;38.67;;;17.80;;
79779;SDS011;69258;52.050;10.334;2023-08-21T12:18:03;32.20;;;17.80;;
79779;SDS011;69258;52.050;10.334;2023-08-21T12:33:06;35.60;;;17.77;;
79779;SDS011;69258;52.050;10.334;2023-08-21T12:48:23;31.83;;;17.83;;
79779;SDS011;69258;52.050;10.334;2023-08-21T13:03:26;30.23;;;15.87;;
79779;SDS011;69258;52.050;10.334;2023-08-21T13:18:30;27.33;;;15.17;;
79779;SDS011;69258;52.050;10.334;2023-08-21T13:33:54;26.63;;;13.30;;
79779;SDS011;69258;52.050;10.334;2023-08-21T13:48:56;23.30;;;11.93;;
79779;SDS011;69258;52.050;10.334;2023-08-21T14:04:00;20.33;;;10.13;;
79779;SDS011;69258;52.050;10.334;2023-08-21T14:19:05;15.43;;;8.47;;
79779;SDS011;69258;52.050;10.334;2023-08-21T14:34:07;15.70;;;7.37;;
79779;SDS011;69258;52.050;10.334;2023-08-21T14:49:09;11.23;;;6.30;;
79779;SDS011;69258;52.050;10.334;2023-08-21T15:04:12;12.30;;;5.33;;
79779;SDS011;69258;52.050;10.334;2023-08-21T15:19:13;8.10;;;3.80;;
79779;SDS011;69258;52.050;10.334;2023-08-21T15:34:15;8.97;;;4.30;;
79779;SDS011;69258;52.050;10.334;2023-08-21T15:49:18;8.40;;;3.83;;
79779;SDS011;69258;52.050;10.334;2023-08-21T16:04:20;9.67;;;4.23;;
79779;SDS011;69258;52.050;10.334;2023-08-21T16:19:25;7.97;;;3.73;;
79779;SDS011;69258;52.050;10.334;2023-08-21T16:34:28;9.40;;;3.57;;
79779;SDS011;69258;52.050;10.334;2023-08-21T16:49:30;8.67;;;3.80;;
79779;SDS011;69258;52.050;10.334;2023-08-21T17:04:33;11.60;;;3.43;;
79779;SDS011;69258;52.050;10.334;2023-08-21T17:19:35;6.27;;;2.57;;
79779;SDS011;69258;52.050;10.334;2023-08-21T17:34:38;5.17;;;2.13;;
79779;SDS011;69258;52.050;10.334;2023-08-21T17:49:41;6.00;;;2.50;;
79779;SDS011;69258;52.050;10.334;2023-08-21T18:04:43;8.53;;;2.50;;
79779;SDS011;69258;52.050;10.334;2023-08-21T18:19:45;5.57;;;2.23;;
79779;SDS011;69258;52.050;10.334;2023-08-21T18:34:48;6.80;;;2.70;;
79779;SDS011;69258;52.050;10.334;2023-08-21T18:49:51;4.90;;;2.57;;
79779;SDS011;69258;52.050;10.334;2023-08-21T19:04:53;4.57;;;2.80;;
79779;SDS011;69258;52.050;10.334;2023-08-21T19:19:55;4.80;;;2.80;;
79779;SDS011;69258;52.050;10.334;2023-08-21T19:34:57;4.40;;;2.90;;
79779;SDS011;69258;52.050;10.334;2023-08-21T19:50:01;4.97;;;3.00;;
79779;SDS011;69258;52.050;10.334;2023-08-21T20:05:04;6.87;;;3.40;;
79779;SDS011;69258;52.050;10.334;2023-08-21T20:20:07;6.20;;;3.67;;
79779;SDS011;69258;52.050;10.334;2023-08-21T20:35:10;5.60;;;3.77;;
79779;SDS011;69258;52.050;10.334;2023-08-21T20:50:13;6.87;;;3.90;;
79779;SDS011;69258;52.050;10.334;2023-08-21T21:05:15;6.40;;;3.37;;
79779;SDS011;69258;52.050;10.334;2023-08-21T21:20:18;5.87;;;3.63;;
79779;SDS011;69258;52.050;10.334;2023-08-21T21:35:21;5.57;;;3.53;;
79779;SDS011;69258;52.050;10.334;2023-08-21T21:50:23;5.57;;;3.30;;
79779;SDS011;69258;52.050;10.334;2023-08-21T22:05:24;4.83;;;3.50;;
79779;SDS011;69258;52.050;10.334;2023-08-21T22:20:27;5.73;;;3.47;;
79779;SDS011;69258;52.050;10.334;2023-08-21T22:35:30;5.67;;;3.00;;
79779;SDS011;69258;52.050;10.334;2023-08-21T22:50:32;4.93;;;3.10;;
79779;SDS011;69258;52.050;10.334;2023-08-21T23:05:36;5.17;;;2.77;;
79779;SDS011;69258;52.050;10.334;2023-08-21T23:20:38;4.40;;;2.90;;
79779;SDS011;69258;52.050;10.334;2023-08-21T23:35:41;4.23;;;2.80;;
79779;SDS011;69258;52.050;10.334;2023-08-21T23:50:44;2.90;;;2.57;;
